Gray Mountain, Arizona
Current Conditions -  °F | °C
As of 6:54 PM on Sunday 25 Jan 2015 (Local Time) from KGCN Reporting Station
Clear Clear  
Wind Chill: -1°   Ceiling: Unl
Heat Index:   Visibility: 10mi
Dew Point: -7°   Wind: 5mph
Humidity: 56%   Direction: 70°ENE
Pressure: 30.34"   Gusts: NA
Location:  35.75°N, 111.48°W
Report Text: KGCN 260154Z 07004KT 10SM CLR 01/M07 A3034 RMK AO2 SLP268 T00111067 $
Loading
Personal Weather Stations






























Interactive Weather Map New forecast layout! Learn more

10-Day Weather Forecast

Advertisements
Track Severe Weather on mobile